< < Back
Terminal Aerodrome Forecast


Current Version              Previous Versions:   1  2  3  4  5  6  7  8  9  

Terminal Aerodrome Forecast

659
FTAK31 PAJN 270520
TAFAHN
TAF
PAHN 270520Z 2706/2806 09006KT P6SM VCSH OVC015
     FM271800 09010KT 6SM -RA BR OVC020
     FM280000 08012G18KT 4SM -RA BR OVC015
      AMD LTD TO CLD VIS AND WIND=

Latest METAR

956
SAUS70 KWBC 271054
MTRAHN
METAR KAHN 271051Z AUTO 23003KT 10SM CLR 23/22 A3005 RMK AO2 SLP168
T02330222


USA.gov is the U.S. government's official web portal to all federal, state and local government web resources and services.